Flight Track Log - Related Links

Times and Time Zones

All times are in EDT time to prevent confusion due to time zone crossing. See the FFT907 flight status page for this flight to view local times or setup timezone preferences in your user account.

Time Position Orientation Groundspeed Altitude Reporting Facility
EDT Latitude Longitude Course Direction KTS MPH feet Rate Location/Type
Tue 11:51:42 AM 40.2833 -74.8000 323° Northwest 156 180 900  Level Philadelphia TRACON
Tue 11:52:57 AM 40.3303 -74.8575 317° Northwest 242 278 3,100 1,378 Climbing New York Center
Tue 11:53:57 AM 40.3397 -74.9508 278° West 262 302 4,000 1,750 Climbing New York Center
Tue 11:54:57 AM 40.3219 -75.0394 255° West 255 293 6,600 2,850 Climbing New York Center
Tue 11:55:57 AM 40.3214 -75.1103 269° West 300 345 9,700 2,450 Climbing New York Center
Tue 11:56:57 AM 40.3050 -75.2100 258° West 288 331 11,500 1,650 Climbing New York Center
Tue 11:57:00 AM 40.2437 -75.5937 323° Northwest  Level FlightAware Approximate
Tue 11:57:57 AM 40.2778 -75.3281 253° West 301 346 13,000  Level New York Center
Tue 11:58:57 AM 40.2478 -75.4511 252° West 335 386 13,000 1,250 Level New York Center
Tue 11:59:57 AM 40.2325 -75.5750 261° West 356 410 15,500 2,000 Climbing New York Center
Tue 12:00:57 PM 40.2956 -75.6639 313° West 331 381 17,000 750 Climbing New York Center
Tue 12:01:57 PM 40.3661 -75.7725 310° West 361 415 17,000 850 Level New York Center
Tue 12:02:57 PM 40.4378 -75.8975 307° West 391 450 18,700 2,200 Climbing New York Center
Tue 12:03:57 PM 40.4558 -76.0081 282° West 374 430 21,400 2,400 Climbing New York Center
Tue 12:04:57 PM 40.4792 -76.1381 283° West 359 413 23,500 1,950 Climbing New York Center
Tue 12:05:57 PM 40.5003 -76.2681 282° West 364 419 25,300 1,750 Climbing New York Center
Tue 12:06:57 PM 40.5231 -76.4036 283° West 369 425 27,000 1,767 Climbing New York Center
Tue 12:08:57 PM 40.5681 -76.6753 282° West 382 440 30,600 1,367 Climbing New York Center
Tue 12:09:57 PM 40.5922 -76.8167 283° West 382 440 31,100 900 Climbing New York Center
Tue 12:10:57 PM 40.6181 -76.9639 283° West 398 458 32,400 1,400 Climbing New York Center
Tue 12:11:57 PM 40.6414 -77.1111 282° West 408 470 33,900 1,400 Climbing New York Center
Tue 12:12:57 PM 40.6686 -77.2667 283° West 408 470 35,200 1,037 Climbing New York Center
Tue 12:14:39 PM 40.7075 -77.5097 282° West 400 460 36,700 778 Climbing Cleveland Center
Tue 12:15:39 PM 40.7300 -77.6539 282° West 400 460 37,300 650 Climbing Cleveland Center
Tue 12:16:39 PM 40.7522 -77.7900 282° West 408 470 38,000 350 Climbing Cleveland Center
Tue 12:17:39 PM 40.7744 -77.9344 282° West 408 470 38,000  Level Cleveland Center
Tue 12:18:39 PM 40.7986 -78.0817 282° West 408 470 38,000  Level Cleveland Center
Tue 12:19:39 PM 40.8206 -78.2289 281° West 413 475 38,000 50 Level Cleveland Center
Tue 12:20:39 PM 40.8489 -78.3953 283° West 418 481 38,100  Climbing Cleveland Center
Tue 12:21:39 PM 40.8725 -78.5483 282° West 424 488 38,000 -50 Descending Cleveland Center
Tue 12:22:39 PM 40.8939 -78.6961 281° West 424 488 38,000  Level Cleveland Center
Tue 12:23:39 PM 40.9169 -78.8383 282° West 424 488 38,000 -50 Level Cleveland Center
Tue 12:24:39 PM 40.9378 -78.9833 281° West 414 476 37,900  Descending Cleveland Center
Tue 12:25:39 PM 40.9586 -79.1286 281° West 409 471 38,000 50 Climbing Cleveland Center
Tue 12:26:39 PM 40.9789 -79.2739 281° West 409 471 38,000  Level Cleveland Center
Tue 12:27:39 PM 41.0014 -79.4222 281° West 409 471 38,000  Level Cleveland Center
Tue 12:28:39 PM 41.0194 -79.5594 280° West 415 478 38,000 50 Level Cleveland Center
Tue 12:29:39 PM 41.0414 -79.7078 281° West 415 478 38,100  Climbing Cleveland Center
Tue 12:30:39 PM 41.0633 -79.8561 281° West 415 478 38,000 -50 Descending Cleveland Center
Tue 12:31:39 PM 41.0831 -80.0047 280° West 415 478 38,000  Level Cleveland Center
Tue 12:32:39 PM 41.1044 -80.1561 281° West 415 478 38,000  Level Cleveland Center
Tue 12:33:39 PM 41.1236 -80.3047 280° West 410 472 38,000  Level Cleveland Center
Tue 12:34:39 PM 41.1447 -80.4700 280° West 415 478 38,000  Level Cleveland Center
Tue 12:35:39 PM 41.1658 -80.6189 281° West 415 478 38,000  Level Cleveland Center
Tue 12:36:39 PM 41.1844 -80.7708 279° West 415 478 38,000  Level Cleveland Center
Tue 12:37:39 PM 41.2028 -80.9225 279° West 415 478 38,000  Level Cleveland Center
Tue 12:38:39 PM 41.2211 -81.0553 280° West 415 478 38,000  Level Cleveland Center
Tue 12:39:39 PM 41.2392 -81.2017 279° West 410 472 38,000 -50 Level Cleveland Center
Tue 12:40:39 PM 41.2569 -81.3456 279° West 405 466 37,900  Descending Cleveland Center
Tue 12:41:39 PM 41.2769 -81.4839 281° West 399 459 38,000 50 Climbing Cleveland Center
Tue 12:42:39 PM 41.2964 -81.6278 280° West 399 459 38,000  Level Cleveland Center
Tue 12:43:39 PM 41.3139 -81.7747 279° West 399 459 38,000  Level Cleveland Center
Tue 12:44:39 PM 41.3308 -81.9186 279° West 399 459 38,000  Level Cleveland Center
Tue 12:45:39 PM 41.3481 -82.0631 279° West 399 459 38,000  Level Cleveland Center
Tue 12:46:39 PM 41.3606 -82.2069 277° West 399 459 38,000  Level Cleveland Center
Tue 12:47:39 PM 41.3689 -82.3511 274° West 404 465 38,000  Level Cleveland Center
Tue 12:48:39 PM 41.3769 -82.5008 274° West 404 465 38,000  Level Cleveland Center
Tue 12:49:39 PM 41.3847 -82.6478 274° West 404 465 38,000  Level Cleveland Center
Tue 12:50:39 PM 41.3944 -82.7975 275° West 404 465 38,000  Level Cleveland Center
Tue 12:51:39 PM 41.3997 -82.9500 273° West 411 473 38,000  Level Cleveland Center
Tue 12:52:39 PM 41.4108 -83.1108 275° West 411 473 38,000 -350 Level Cleveland Center
Tue 12:53:39 PM 41.4158 -83.2581 273° West 400 460 37,300 -850 Descending Cleveland Center
Tue 12:54:39 PM 41.4228 -83.4050 274° West 400 460 36,300 -650 Descending Cleveland Center
Tue 12:55:39 PM 41.4294 -83.5522 274° West 405 466 36,000 -150 Descending Cleveland Center
Tue 12:56:39 PM 41.4383 -83.6911 275° West 399 459 36,000  Level Cleveland Center
Tue 12:57:39 PM 41.4447 -83.8381 273° West 399 459 36,000  Level Cleveland Center
Tue 12:59:22 PM 41.4558 -84.0639 274° West 394 453 36,000  Level Chicago Center
Tue 01:00:24 PM 41.4633 -84.2075 274° West 389 448 36,000 -435 Level Chicago Center
Tue 01:01:26 PM 41.4694 -84.3822 273° West 394 453 35,100 -1,935 Descending Chicago Center
Tue 01:02:28 PM 41.4761 -84.5325 273° West 404 465 32,000 -2,468 Descending Chicago Center
Tue 01:03:30 PM 41.4819 -84.6839 273° West 410 472 30,000 -968 Descending Chicago Center
Tue 01:04:32 PM 41.4872 -84.8367 273° West 412 474 30,000 -48 Level Chicago Center
Tue 01:05:34 PM 41.4931 -84.9881 273° West 409 471 29,900 -532 Descending Chicago Center
Tue 01:06:36 PM 41.4975 -85.1394 272° West 408 470 28,900 -1,500 Descending Chicago Center
Tue 01:07:38 PM 41.5022 -85.2914 272° West 408 470 26,800 -2,274 Descending Chicago Center
Tue 01:08:40 PM 41.5067 -85.4714 272° West 398 458 24,200 -2,371 Descending Chicago Center
Tue 01:09:42 PM 41.5119 -85.6178 273° West 391 450 21,900 -2,049 Descending Chicago Center
Tue 01:10:43 PM 41.5167 -85.7553 273° West 373 429 20,000 -1,854 Descending Chicago Center
Tue 01:11:45 PM 41.5208 -85.8867 272° West 357 411 18,100 -1,790 Descending Chicago Center
Tue 01:12:47 PM 41.5239 -86.0167 272° West 351 404 16,300 -1,742 Descending Chicago Center
Tue 01:13:49 PM 41.5236 -86.1450 270° West 347 399 14,500 -1,694 Descending Chicago Center
Tue 01:14:51 PM 41.5228 -86.2686 270° West 337 388 12,800 -1,694 Descending Chicago Center
Tue 01:15:53 PM 41.5228 -86.3886 270° West 325 374 11,000 -1,258 Descending Chicago Center
Tue 01:16:55 PM 41.5208 -86.5286 269° West 314 361 10,200 -532 Descending Chicago Center
Tue 01:17:57 PM 41.5203 -86.6356 270° West 288 331 9,900 -288 Descending Chicago Center
Tue 01:19:00 PM 41.5206 -86.7333 270° West 281 323 9,600 -912 Descending Chicago Center
Tue 01:20:02 PM 41.5189 -86.8575 269° West 281 323 8,000 -1,113 Descending Chicago Center
Tue 01:21:04 PM 41.5175 -86.9592 269° West 277 319 7,300 -677 Descending Chicago Center
Tue 01:22:06 PM 41.5169 -87.0592 270° West 272 313 6,600 -629 Descending Chicago Center
Tue 01:23:08 PM 41.5228 -87.1603 274° West 273 314 6,000 -339 Descending Chicago Center
Tue 01:24:10 PM 41.5294 -87.2603 275° West 272 313 5,900 -48 Descending Chicago Center
Tue 01:25:12 PM 41.5339 -87.3794 273° West 271 312 5,900 -387 Level Chicago Center
Tue 01:26:14 PM 41.5731 -87.4567 304° West 264 304 5,100 -871 Descending Chicago Center
Tue 01:27:16 PM 41.6164 -87.5153 315° West 240 276 4,100 -581 Descending Chicago Center
Tue 01:28:18 PM 41.6528 -87.5669 313° West 218 251 3,900 -387 Descending Chicago Center
Tue 01:29:20 PM 41.6853 -87.6128 314° West 193 222 3,300 -871 Descending Chicago Center
Tue 01:30:22 PM 41.7253 -87.6689 314° West 181 208 2,100 -968 Descending Chicago Center
Tue 01:31:24 PM 41.7572 -87.7131 314° West 175 201 1,300 -581 Descending Chicago Center
Tue 01:32:26 PM 41.7786 -87.7442 313° West 161 185 900 -387 Descending Chicago Center
Tue 01:34:00 PM 41.7833 -87.7500 334° Northwest  Level FlightAware Approximate

Login

Don't have an account? Register now (free) for customized features, flight alerts, and more!